Time;durP1;ratioP1;P1;durP2;ratioP2;P2;SDS_P1;SDS_P2;PMS_P1;PMS_P2;Temp;Humidity;BMP_temperature;BMP_pressure;BME280_temperature;BME280_humidity;BME280_pressure;Samples;Min_cycle;Max_cycle;Signal;HPM_P1;HPM_P2
2022/08/23 00:01:56;;;;;;;5.83;3.27;;;22.50;87.20;;;;;;6259116;22;20395;-84
2022/08/23 00:04:26;;;;;;;6.40;2.93;;;22.40;89.70;;;;;;6258203;22;20410;-83
2022/08/23 00:06:52;;;;;;;7.33;3.10;;;22.40;91.40;;;;;;6257922;22;20427;-83
2022/08/23 00:09:21;;;;;;;9.30;3.13;;;22.40;91.90;;;;;;6258479;22;20396;-84
2022/08/23 00:11:50;;;;;;;5.13;3.07;;;22.40;92.80;;;;;;6259407;22;20390;-85
2022/08/23 00:14:22;;;;;;;4.70;2.97;;;22.30;93.60;;;;;;6259016;22;20439;-82
2022/08/23 00:16:49;;;;;;;4.93;3.17;;;22.30;94.70;;;;;;6258135;22;20466;-83
2022/08/23 00:19:16;;;;;;;5.67;3.23;;;22.30;95.50;;;;;;6259487;22;20410;-84
2022/08/23 00:21:43;;;;;;;5.37;3.17;;;22.20;96.20;;;;;;6259243;22;20444;-85
2022/08/23 00:24:10;;;;;;;7.13;4.30;;;22.20;96.70;;;;;;6258634;22;20744;-85
2022/08/23 00:27:05;;;;;;;6.73;3.50;;;22.20;97.80;;;;;;6258383;22;20426;-84
2022/08/23 00:29:39;;;;;;;6.50;3.30;;;22.20;98.90;;;;;;6258591;22;20851;-83
2022/08/23 00:32:07;;;;;;;6.10;3.77;;;22.10;99.90;;;;;;6259011;22;20377;-85
2022/08/23 00:34:34;;;;;;;5.17;4.37;;;22.00;99.90;;;;;;6259051;22;20383;-83
2022/08/23 00:37:00;;;;;;;10.50;3.77;;;22.00;99.90;;;;;;6258433;22;20462;-83
2022/08/23 00:39:26;;;;;;;5.30;3.13;;;21.90;99.90;;;;;;6257467;22;20600;-85
2022/08/23 00:41:57;;;;;;;9.30;4.30;;;21.90;99.90;;;;;;6259236;22;20414;-83
2022/08/23 00:50:20;;;;;;;7.00;4.00;;;21.90;99.90;;;;;;6285943;22;20438;-84
2022/08/23 00:53:13;;;;;;;9.47;3.33;;;21.80;99.90;;;;;;6258839;22;20376;-83
2022/08/23 00:55:41;;;;;;;4.70;3.90;;;21.70;99.90;;;;;;6259045;22;20387;-83
2022/08/23 00:58:07;;;;;;;6.27;3.40;;;21.60;99.90;;;;;;6256817;22;20436;-84
2022/08/23 01:00:34;;;;;;;4.67;3.30;;;21.50;99.90;;;;;;6259292;22;20433;-83
2022/08/23 01:03:02;;;;;;;6.17;3.30;;;21.50;99.90;;;;;;6257817;22;20441;-85
2022/08/23 01:05:42;;;;;;;8.80;4.83;;;21.50;99.90;;;;;;6257694;22;20424;-83
2022/08/23 01:08:07;;;;;;;6.40;3.53;;;21.50;99.90;;;;;;6257527;22;20473;-84
2022/08/23 01:10:46;;;;;;;8.37;4.33;;;21.40;99.90;;;;;;6259125;22;20399;-84
2022/08/23 01:13:20;;;;;;;8.07;3.80;;;21.40;99.90;;;;;;6258994;22;20151;-83
2022/08/23 01:15:50;;;;;;;6.23;3.50;;;21.30;99.90;;;;;;6258622;22;20398;-84
2022/08/23 01:18:19;;;;;;;7.30;3.90;;;21.30;99.90;;;;;;6285470;22;20850;-83
2022/08/23 01:20:49;;;;;;;6.10;3.13;;;21.20;99.90;;;;;;6284972;22;20455;-84
2022/08/23 01:23:30;;;;;;;9.07;4.20;;;21.20;99.90;;;;;;6258505;22;20464;-83
2022/08/23 01:25:57;;;;;;;6.50;4.00;;;21.10;99.90;;;;;;6285210;22;20362;-85
2022/08/23 01:28:23;;;;;;;8.20;3.70;;;21.10;99.90;;;;;;6257525;22;20392;-84
2022/08/23 01:30:50;;;;;;;5.80;3.63;;;21.10;99.90;;;;;;6258111;22;20386;-85
2022/08/23 01:33:20;;;;;;;6.37;3.83;;;21.10;99.90;;;;;;6258765;22;20407;-89
2022/08/23 01:35:50;;;;;;;5.20;3.50;;;21.10;99.90;;;;;;6258013;22;20388;-85
2022/08/23 01:38:16;;;;;;;21.10;4.30;;;21.10;99.90;;;;;;6257263;22;20863;-84
2022/08/23 01:40:43;;;;;;;11.20;4.67;;;21.00;99.90;;;;;;6259182;22;20497;-84
2022/08/23 01:43:12;;;;;;;7.90;4.87;;;21.00;99.90;;;;;;6285054;22;20369;-87
2022/08/23 01:45:39;;;;;;;8.57;5.03;;;21.00;99.90;;;;;;6258475;22;20389;-83
2022/08/23 01:48:06;;;;;;;7.20;4.83;;;21.00;99.90;;;;;;6259138;22;20403;-86
2022/08/23 01:50:32;;;;;;;9.40;4.80;;;21.00;99.90;;;;;;6263615;22;20505;-85
2022/08/23 01:52:58;;;;;;;13.53;5.17;;;20.90;99.90;;;;;;6265085;22;20389;-84
2022/08/23 01:55:25;;;;;;;8.30;5.83;;;20.90;99.90;;;;;;6259306;22;20425;-83
2022/08/23 01:57:54;;;;;;;8.10;5.47;;;20.90;99.90;;;;;;6257105;22;20389;-83
2022/08/23 02:00:23;;;;;;;10.07;6.00;;;20.90;99.90;;;;;;6258340;22;20500;-84
2022/08/23 02:02:50;;;;;;;7.87;5.30;;;20.90;99.90;;;;;;6258278;22;20378;-85
2022/08/23 02:05:16;;;;;;;10.17;5.40;;;20.90;99.90;;;;;;6258207;22;20394;-83
2022/08/23 02:07:41;;;;;;;8.73;5.57;;;20.80;99.90;;;;;;6256923;22;20437;-85
2022/08/23 02:10:08;;;;;;;10.93;5.70;;;20.80;99.90;;;;;;6258186;22;20789;-84
2022/08/23 02:12:34;;;;;;;9.60;5.77;;;20.80;99.90;;;;;;6257975;22;20157;-83
2022/08/23 02:14:59;;;;;;;8.60;6.00;;;20.80;99.90;;;;;;6258067;22;20736;-84
2022/08/23 02:17:26;;;;;;;11.00;5.30;;;20.70;99.90;;;;;;6284328;22;20399;-84
2022/08/23 02:19:51;;;;;;;8.87;5.83;;;20.70;99.90;;;;;;6258159;22;20176;-83
2022/08/23 02:22:17;;;;;;;9.50;6.83;;;20.70;99.90;;;;;;6258474;22;20393;-87
2022/08/23 02:24:46;;;;;;;12.33;6.00;;;20.60;99.90;;;;;;6258142;22;20197;-87
2022/08/23 02:27:14;;;;;;;11.87;5.47;;;20.60;99.90;;;;;;6257401;22;20184;-86
2022/08/23 02:29:40;;;;;;;13.83;5.73;;;20.50;99.90;;;;;;6284888;22;20405;-86
2022/08/23 02:32:08;;;;;;;8.40;5.47;;;20.50;99.90;;;;;;6258265;22;20438;-86
2022/08/23 02:34:34;;;;;;;13.20;7.00;;;20.50;99.90;;;;;;6257607;22;20971;-85
2022/08/23 02:37:00;;;;;;;11.70;5.40;;;20.50;99.90;;;;;;6256227;22;20386;-85
2022/08/23 02:39:26;;;;;;;12.60;6.80;;;20.50;99.90;;;;;;6257659;22;20440;-83
2022/08/23 02:41:52;;;;;;;11.47;6.57;;;20.50;99.90;;;;;;6284719;22;20799;-84
2022/08/23 02:44:18;;;;;;;5.90;5.33;;;20.50;99.90;;;;;;6257486;22;20218;-85
2022/08/23 02:46:44;;;;;;;12.63;6.73;;;20.50;99.90;;;;;;6257435;22;20724;-83
2022/08/23 02:49:10;;;;;;;13.47;7.10;;;20.40;99.90;;;;;;6258395;22;20401;-83
2022/08/23 02:51:37;;;;;;;13.50;6.37;;;20.40;99.90;;;;;;6257586;22;20182;-84
2022/08/23 02:54:04;;;;;;;13.80;6.83;;;20.30;99.90;;;;;;6285330;22;20384;-84
2022/08/23 02:56:31;;;;;;;12.07;6.43;;;20.20;99.90;;;;;;6255983;22;20386;-85
2022/08/23 02:58:57;;;;;;;8.70;6.10;;;20.10;99.90;;;;;;6257510;22;20414;-83
2022/08/23 03:01:34;;;;;;;10.40;7.40;;;20.00;99.90;;;;;;6258151;22;20410;-83
2022/08/23 03:03:59;;;;;;;10.60;8.53;;;20.00;99.90;;;;;;6257117;22;20375;-84
2022/08/23 03:06:26;;;;;;;10.83;7.80;;;20.00;99.90;;;;;;6258703;22;20452;-86
2022/08/23 03:08:53;;;;;;;14.00;8.20;;;20.00;99.90;;;;;;6259119;22;20170;-85
2022/08/23 03:11:21;;;;;;;10.63;8.33;;;20.00;99.90;;;;;;6259601;22;20383;-85
2022/08/23 03:13:47;;;;;;;8.97;7.90;;;20.00;99.90;;;;;;6260413;22;20386;-88
2022/08/23 03:16:14;;;;;;;9.03;8.10;;;20.00;99.90;;;;;;6259826;22;20389;-92
2022/08/23 03:18:40;;;;;;;11.47;8.43;;;20.00;99.90;;;;;;6259126;22;20418;-85
2022/08/23 03:21:07;;;;;;;10.77;9.00;;;19.90;99.90;;;;;;6259115;22;20391;-85
2022/08/23 03:23:34;;;;;;;12.53;8.50;;;19.90;99.90;;;;;;6259078;22;20176;-85
2022/08/23 03:26:01;;;;;;;16.10;9.50;;;19.80;99.90;;;;;;6259295;22;20371;-92
2022/08/23 03:28:28;;;;;;;18.43;9.43;;;19.80;99.90;;;;;;6259006;22;20388;-86
2022/08/23 03:30:54;;;;;;;12.30;9.20;;;19.70;99.90;;;;;;6259954;22;20381;-85
2022/08/23 03:33:20;;;;;;;12.20;9.53;;;19.70;99.90;;;;;;6286379;22;20764;-87
2022/08/23 03:35:47;;;;;;;13.93;8.67;;;19.70;1.00;;;;;;6286544;22;20375;-88
2022/08/23 03:38:13;;;;;;;13.83;8.63;;;19.60;1.00;;;;;;6258204;22;20383;-87
2022/08/23 03:40:40;;;;;;;10.60;9.50;;;19.50;1.00;;;;;;6259190;22;20795;-87
2022/08/23 03:43:05;;;;;;;10.90;9.80;;;19.50;1.00;;;;;;6258938;22;20380;-85
2022/08/23 03:45:31;;;;;;;15.37;9.47;;;19.40;1.00;;;;;;6259052;22;20379;-85
2022/08/23 03:47:57;;;;;;;16.00;9.67;;;19.40;1.00;;;;;;6259052;22;20182;-86
2022/08/23 03:50:23;;;;;;;11.67;9.90;;;19.30;1.00;;;;;;6259931;22;20176;-85
2022/08/23 03:52:49;;;;;;;11.10;9.63;;;19.30;1.00;;;;;;6259723;22;20393;-85
2022/08/23 03:55:15;;;;;;;10.50;9.47;;;19.30;1.00;;;;;;6286299;22;20373;-85
2022/08/23 03:57:41;;;;;;;11.13;9.30;;;19.30;1.00;;;;;;6259030;22;20164;-85
2022/08/23 04:00:11;;;;;;;10.67;9.57;;;19.30;1.00;;;;;;6259537;22;20410;-85
2022/08/23 04:02:37;;;;;;;11.50;8.50;;;19.30;1.00;;;;;;6258347;22;20197;-85
2022/08/23 04:05:04;;;;;;;10.53;8.50;;;19.30;1.00;;;;;;6286449;22;20374;-86
2022/08/23 04:07:30;;;;;;;13.37;9.43;;;19.30;1.00;;;;;;6257902;22;20212;-91
2022/08/23 04:09:55;;;;;;;14.40;9.80;;;19.30;1.00;;;;;;6259892;22;20886;-86
2022/08/23 04:12:22;;;;;;;10.87;9.00;;;19.30;1.00;;;;;;6285277;22;20152;-89
2022/08/23 04:14:48;;;;;;;13.20;8.70;;;19.30;1.00;;;;;;6259522;22;20159;-85
2022/08/23 04:17:14;;;;;;;14.20;9.03;;;19.20;1.00;;;;;;6257930;22;20375;-88
2022/08/23 04:19:40;;;;;;;10.23;8.57;;;19.20;1.00;;;;;;6259612;22;20430;-85
2022/08/23 04:22:14;;;;;;;14.03;8.70;;;19.10;1.00;;;;;;6286267;22;20385;-86
2022/08/23 04:24:41;;;;;;;12.07;9.07;;;19.10;1.00;;;;;;6258726;22;20445;-86
2022/08/23 04:27:07;;;;;;;13.83;9.17;;;19.10;1.00;;;;;;6257869;22;20428;-85
2022/08/23 04:29:33;;;;;;;10.00;8.40;;;19.10;1.00;;;;;;6257778;22;20473;-85
2022/08/23 04:31:59;;;;;;;12.53;9.43;;;19.10;1.00;;;;;;6259288;22;20388;-85
2022/08/23 04:34:26;;;;;;;11.63;8.50;;;19.10;1.00;;;;;;6258572;22;20436;-87
2022/08/23 04:36:52;;;;;;;9.17;8.27;;;19.10;1.00;;;;;;6257625;22;20182;-87
2022/08/23 04:39:18;;;;;;;9.20;7.83;;;19.10;1.00;;;;;;6258913;22;20757;-88
2022/08/23 04:44:27;;;;;;;10.27;7.97;;;19.10;1.00;;;;;;6285140;22;20172;-85
2022/08/23 04:46:53;;;;;;;14.47;8.70;;;19.20;1.00;;;;;;6257350;22;20424;-87
2022/08/23 04:49:19;;;;;;;8.30;7.23;;;19.30;1.00;;;;;;6258896;22;20553;-92
2022/08/23 04:51:44;;;;;;;11.00;8.40;;;19.30;1.00;;;;;;6258557;22;20196;-86
2022/08/23 04:54:10;;;;;;;14.97;7.80;;;19.40;1.00;;;;;;6259000;22;20163;-91
2022/08/23 04:56:37;;;;;;;15.50;8.77;;;19.50;1.00;;;;;;6256966;22;20168;-85
2022/08/23 04:59:03;;;;;;;11.53;8.20;;;19.60;99.90;;;;;;6259004;22;20712;-86
2022/08/23 05:01:29;;;;;;;12.80;7.73;;;19.70;99.90;;;;;;6257612;22;20415;-87
2022/08/23 05:03:54;;;;;;;13.00;8.30;;;19.80;99.90;;;;;;6258151;22;20384;-86
2022/08/23 05:06:20;;;;;;;12.27;8.13;;;19.90;99.90;;;;;;6257158;22;20574;-91
2022/08/23 05:08:46;;;;;;;9.83;7.70;;;20.10;99.90;;;;;;6257767;22;20191;-86
2022/08/23 05:11:12;;;;;;;9.03;7.30;;;20.20;99.90;;;;;;6285655;22;20396;-86
2022/08/23 05:13:38;;;;;;;17.93;7.80;;;20.40;99.90;;;;;;6258001;22;20866;-86
2022/08/23 05:16:05;;;;;;;10.77;6.50;;;20.50;99.90;;;;;;6257012;22;20174;-86
2022/08/23 05:18:32;;;;;;;11.17;7.73;;;20.60;99.90;;;;;;6258279;22;20481;-86
2022/08/23 05:20:58;;;;;;;13.50;7.50;;;20.60;99.90;;;;;;6284290;22;20375;-86
2022/08/23 05:23:24;;;;;;;10.77;6.47;;;20.70;99.90;;;;;;6254918;22;20819;-86
2022/08/23 05:25:52;;;;;;;10.07;7.40;;;20.80;99.90;;;;;;6253579;22;20384;-86
2022/08/23 05:28:30;;;;;;;10.10;7.53;;;21.00;99.90;;;;;;6253221;22;20397;-85
2022/08/23 05:31:02;;;;;;;9.10;7.90;;;21.40;99.90;;;;;;6253326;22;20395;-83
2022/08/23 05:33:29;;;;;;;10.70;6.97;;;23.00;99.90;;;;;;6251367;22;20879;-85
2022/08/23 05:35:55;;;;;;;16.47;6.73;;;26.00;99.90;;;;;;6277591;22;20371;-84
2022/08/23 05:38:21;;;;;;;12.20;5.80;;;28.50;99.90;;;;;;6276323;22;20409;-84
2022/08/23 05:40:52;;;;;;;8.93;6.17;;;30.60;99.90;;;;;;6249784;22;20171;-84
2022/08/23 05:43:19;;;;;;;9.47;5.87;;;31.20;99.90;;;;;;6249889;22;20868;-85
2022/08/23 05:45:44;;;;;;;9.33;5.57;;;31.00;99.90;;;;;;6276217;22;20960;-84
2022/08/23 05:48:11;;;;;;;6.87;5.73;;;31.80;99.90;;;;;;6248803;22;20470;-84
2022/08/23 05:50:37;;;;;;;7.17;4.53;;;35.10;99.90;;;;;;6249782;22;20179;-85
2022/08/23 05:53:03;;;;;;;7.47;4.90;;;38.00;99.90;;;;;;6249711;22;20383;-84
2022/08/23 05:55:29;;;;;;;8.10;4.83;;;40.40;99.90;;;;;;6248770;22;20437;-86
2022/08/23 05:57:57;;;;;;;7.83;3.93;;;42.40;97.00;;;;;;6247150;22;20160;-85
2022/08/23 06:00:24;;;;;;;6.17;3.77;;;44.30;91.80;;;;;;6248480;22;20187;-89
2022/08/23 06:02:50;;;;;;;6.50;3.83;;;45.90;82.20;;;;;;6275395;22;20382;-86
2022/08/23 06:05:16;;;;;;;7.20;3.80;;;47.30;70.60;;;;;;6248698;22;20397;-86
2022/08/23 06:07:42;;;;;;;7.40;4.30;;;48.40;59.00;;;;;;6275953;22;20175;-86
2022/08/23 06:10:08;;;;;;;7.80;3.73;;;49.50;51.20;;;;;;6249814;22;20954;-86
2022/08/23 06:12:34;;;;;;;6.90;3.67;;;50.20;43.90;;;;;;6277501;22;20201;-86
2022/08/23 06:15:00;;;;;;;9.47;3.27;;;51.10;37.10;;;;;;6250081;22;20406;-85
2022/08/23 06:17:27;;;;;;;8.33;3.10;;;51.90;30.80;;;;;;6224345;22;20330;-85
2022/08/23 06:19:52;;;;;;;5.82;3.10;;;52.60;26.60;;;;;;6276563;22;20621;-85
2022/08/23 06:22:18;;;;;;;6.63;3.65;;;53.20;22.20;;;;;;6249584;22;20154;-86
2022/08/23 06:24:44;;;;;;;8.27;3.28;;;53.60;18.30;;;;;;6249826;22;20513;-86
2022/08/23 06:27:10;;;;;;;6.75;3.13;;;54.10;15.60;;;;;;6276267;22;20481;-86
2022/08/23 06:29:37;;;;;;;9.40;3.75;;;54.60;12.40;;;;;;6249897;22;20194;-86
2022/08/23 06:32:14;;;;;;;6.22;3.47;;;55.00;9.90;;;;;;6251004;22;20151;-86
2022/08/23 06:34:40;;;;;;;3.50;2.67;;;55.90;7.80;;;;;;6249774;22;20467;-86
2022/08/23 06:37:11;;;;;;;5.53;3.35;;;55.10;4.40;;;;;;6249712;22;20179;-86
2022/08/23 06:39:39;;;;;;;7.35;3.10;;;55.20;1.80;;;;;;6224002;22;20176;-87
2022/08/23 06:42:13;;;;;;;5.93;3.50;;;54.70;1.00;;;;;;6249422;22;20198;-86
2022/08/23 06:44:40;;;;;;;5.93;2.77;;;51.40;1.00;;;;;;6249134;22;20144;-87
2022/08/23 06:47:07;;;;;;;7.77;3.80;;;48.30;1.00;;;;;;6256172;22;20490;-85
2022/08/23 06:49:33;;;;;;;6.07;3.90;;;46.20;1.00;;;;;;6249439;22;20399;-85
2022/08/23 06:52:05;;;;;;;6.13;3.60;;;44.00;1.00;;;;;;6250247;22;20394;-85
2022/08/23 06:54:36;;;;;;;6.70;3.53;;;42.50;1.00;;;;;;6248710;22;20398;-85
2022/08/23 06:57:02;;;;;;;9.80;4.53;;;40.50;1.00;;;;;;6247934;22;20423;-84
2022/08/23 06:59:30;;;;;;;8.83;4.07;;;39.00;1.00;;;;;;6248591;22;20482;-84
2022/08/23 07:02:03;;;;;;;12.17;4.87;;;38.70;1.00;;;;;;6244874;23;20391;-84
2022/08/23 07:04:31;;;;;;;10.60;4.03;;;39.30;1.00;;;;;;6218384;23;20392;-84
2022/08/23 07:06:57;;;;;;;9.33;4.30;;;41.50;1.00;;;;;;6217451;23;20710;-85
2022/08/23 07:09:25;;;;;;;5.87;3.70;;;45.30;5.00;;;;;;6218388;23;20430;-85
2022/08/23 07:11:51;;;;;;;10.00;3.70;;;48.50;7.00;;;;;;6218084;23;20391;-85
2022/08/23 07:14:18;;;;;;;10.27;3.23;;;51.20;7.40;;;;;;6218398;23;20395;-84
2022/08/23 07:16:55;;;;;;;5.75;4.10;;;53.20;6.80;;;;;;6245092;23;20230;-85
2022/08/23 07:19:23;;;;;;;6.32;3.47;;;54.90;5.30;;;;;;6218650;23;20172;-85
2022/08/23 07:21:50;;;;;;;8.25;4.38;;;56.10;3.90;;;;;;6245940;23;20144;-85
2022/08/23 07:24:19;;;;;;;8.43;3.75;;;56.90;2.20;;;;;;6219191;23;20203;-85
2022/08/23 07:26:49;;;;;;;8.75;3.45;;;57.40;1.00;;;;;;6243172;23;20152;-86
2022/08/23 07:35:08;;;;;;;5.38;3.28;;;57.90;1.00;;;;;;6245681;23;20215;-84
2022/08/23 07:40:58;;;;;;;6.70;3.40;;;58.30;1.00;;;;;;6217479;23;20263;-83
2022/08/23 07:43:24;;;;;;;5.78;3.50;;;58.50;1.00;;;;;;6189078;23;20229;-85
2022/08/23 07:45:50;;;;;;;7.88;3.47;;;58.60;1.00;;;;;;6188749;23;20177;-84
2022/08/23 07:48:16;;;;;;;12.43;3.90;;;58.90;1.00;;;;;;6188429;23;20153;-84
2022/08/23 07:51:17;;;;;;;11.98;3.72;;;59.00;1.00;;;;;;6189530;23;20173;-84
2022/08/23 07:53:44;;;;;;;7.20;4.00;;;59.10;1.00;;;;;;6189947;23;20153;-91
2022/08/23 07:56:11;;;;;;;7.78;3.50;;;59.10;1.00;;;;;;6189104;23;20163;-90
2022/08/23 07:58:37;;;;;;;7.50;3.05;;;59.30;1.00;;;;;;6189995;23;20157;-85
2022/08/23 08:01:24;;;;;;;8.55;3.10;;;59.40;1.00;;;;;;6189706;23;20153;-86
2022/08/23 08:03:52;;;;;;;6.47;3.10;;;59.00;1.00;;;;;;6216031;23;20129;-85
2022/08/23 08:06:27;;;;;;;8.88;3.40;;;58.30;1.00;;;;;;6187678;23;20635;-85
2022/08/23 08:08:54;;;;;;;6.30;3.40;;;57.90;1.00;;;;;;6215217;23;20700;-84
2022/08/23 08:11:24;;;;;;;6.22;3.42;;;57.80;1.00;;;;;;6189174;23;20164;-84
2022/08/23 08:13:50;;;;;;;8.52;3.58;;;57.70;1.00;;;;;;6189174;23;20484;-85
2022/08/23 08:16:30;;;;;;;7.10;3.97;;;57.50;1.00;;;;;;6188875;23;20196;-85
2022/08/23 08:18:58;;;;;;;7.47;2.95;;;57.50;1.00;;;;;;6189249;23;20275;-85
2022/08/23 08:21:25;;;;;;;6.68;3.15;;;57.50;1.00;;;;;;6188689;23;20157;-85
2022/08/23 08:23:52;;;;;;;6.47;2.75;;;57.60;1.00;;;;;;6189887;23;20165;-85
2022/08/23 08:26:17;;;;;;;8.55;2.97;;;57.70;1.00;;;;;;6188572;23;20184;-86
2022/08/23 08:28:44;;;;;;;9.00;3.08;;;57.70;1.00;;;;;;6189918;23;20157;-85
2022/08/23 08:31:10;;;;;;;3.35;2.05;;;58.00;1.00;;;;;;6216079;23;20156;-85
2022/08/23 08:33:36;;;;;;;5.93;2.60;;;58.10;1.00;;;;;;6189427;23;20173;-86
2022/08/23 08:36:03;;;;;;;5.57;2.80;;;58.30;1.00;;;;;;6215105;23;20178;-85
2022/08/23 08:38:40;;;;;;;5.22;2.50;;;58.40;1.00;;;;;;6188775;23;20160;-86
2022/08/23 08:41:16;;;;;;;8.68;3.10;;;58.40;1.00;;;;;;6189756;23;20152;-86
2022/08/23 08:44:00;;;;;;;6.60;2.50;;;58.50;1.00;;;;;;6189359;23;20155;-86
2022/08/23 08:46:44;;;;;;;4.95;2.58;;;58.50;1.00;;;;;;6214602;23;20137;-85
2022/08/23 08:49:16;;;;;;;4.50;2.50;;;58.40;1.00;;;;;;6189012;23;20244;-84
2022/08/23 08:52:04;;;;;;;4.78;2.42;;;58.30;1.00;;;;;;6215659;23;20475;-86
2022/08/23 08:54:31;;;;;;;6.90;2.88;;;58.00;1.00;;;;;;6185412;23;20157;-85
2022/08/23 08:57:00;;;;;;;2.75;2.10;;;58.00;1.00;;;;;;6187253;23;20221;-86
2022/08/23 08:59:55;;;;;;;4.78;2.50;;;58.00;1.00;;;;;;6189368;23;20177;-85
2022/08/23 09:02:23;;;;;;;3.75;2.70;;;58.00;1.00;;;;;;6214666;23;20166;-85
2022/08/23 09:04:49;;;;;;;9.48;2.90;;;58.00;1.00;;;;;;6188779;23;20153;-86
2022/08/23 09:07:52;;;;;;;6.82;2.80;;;58.00;1.00;;;;;;6187701;23;20538;-85
2022/08/23 09:10:24;;;;;;;5.05;2.45;;;58.10;1.00;;;;;;6200680;23;20176;-86
2022/08/23 09:13:13;;;;;;;6.10;2.47;;;58.00;1.00;;;;;;6215623;23;20207;-85
2022/08/23 09:15:56;;;;;;;4.50;1.95;;;58.00;1.00;;;;;;6189234;23;20629;-86
2022/08/23 09:18:23;;;;;;;5.80;2.67;;;57.00;1.00;;;;;;6187651;23;20499;-85
2022/08/23 09:20:52;;;;;;;6.40;2.67;;;56.20;1.00;;;;;;6188971;23;20547;-85
2022/08/23 09:23:39;;;;;;;6.95;2.13;;;56.10;1.00;;;;;;6189157;23;20159;-85
2022/08/23 09:26:35;;;;;;;5.95;2.50;;;56.40;1.00;;;;;;6188166;23;20203;-85
2022/08/23 09:29:21;;;;;;;6.70;2.38;;;56.50;1.00;;;;;;6215570;23;20181;-85
2022/08/23 09:31:57;;;;;;;4.35;2.05;;;56.40;1.00;;;;;;6214673;23;20206;-85
2022/08/23 09:34:38;;;;;;;6.05;2.30;;;55.90;1.00;;;;;;6186049;23;20251;-88
2022/08/23 09:37:21;;;;;;;5.70;2.30;;;55.70;1.00;;;;;;6186745;23;20177;-84
2022/08/23 09:40:12;;;;;;;4.40;1.98;;;55.50;1.00;;;;;;6186855;23;20525;-85
2022/08/23 09:42:39;;;;;;;3.78;2.15;;;55.40;1.00;;;;;;6190120;23;20191;-84
2022/08/23 09:45:30;;;;;;;9.75;2.50;;;54.90;1.00;;;;;;6186505;23;20234;-84
2022/08/23 09:47:55;;;;;;;7.28;2.25;;;55.00;1.00;;;;;;6185576;23;20196;-84
2022/08/23 09:50:28;;;;;;;5.38;2.22;;;55.10;1.00;;;;;;6186781;23;20543;-86
2022/08/23 09:52:59;;;;;;;3.50;2.58;;;55.30;1.00;;;;;;6186920;23;20163;-84
2022/08/23 09:55:33;;;;;;;2.80;2.08;;;55.40;1.00;;;;;;6188874;23;20149;-84
2022/08/23 09:58:22;;;;;;;8.15;2.22;;;55.20;1.00;;;;;;6214292;23;20165;-84
2022/08/23 10:01:08;;;;;;;4.13;2.33;;;55.00;1.00;;;;;;6187862;23;20200;-83
2022/08/23 10:03:33;;;;;;;5.85;1.95;;;54.90;1.00;;;;;;6187715;23;20231;-84
2022/08/23 10:06:00;;;;;;;6.03;2.33;;;54.80;1.00;;;;;;6219717;23;20490;-85
2022/08/23 10:08:33;;;;;;;4.30;1.90;;;54.90;1.00;;;;;;6185259;23;20157;-85
2022/08/23 10:11:27;;;;;;;3.90;2.10;;;54.90;1.00;;;;;;6187842;23;20235;-83
2022/08/23 10:13:52;;;;;;;7.70;2.28;;;54.50;1.00;;;;;;6213301;23;20624;-86
2022/08/23 10:16:30;;;;;;;6.35;2.28;;;54.20;1.00;;;;;;6212374;23;20184;-85
2022/08/23 10:19:14;;;;;;;4.80;2.23;;;53.80;1.00;;;;;;6214208;23;20164;-85
2022/08/23 10:21:59;;;;;;;5.47;2.30;;;53.30;1.00;;;;;;6187483;23;20156;-84
2022/08/23 10:24:46;;;;;;;5.43;2.50;;;53.30;1.00;;;;;;6213877;23;20191;-85
2022/08/23 10:30:16;;;;;;;6.87;2.70;;;53.10;1.00;;;;;;6213478;23;20215;-84
2022/08/23 10:32:56;;;;;;;8.82;2.42;;;53.10;1.00;;;;;;6185472;23;20189;-84
2022/08/23 10:35:57;;;;;;;6.43;2.45;;;53.10;1.00;;;;;;6186058;23;20252;-85
2022/08/23 10:38:38;;;;;;;4.28;1.92;;;53.00;1.00;;;;;;6185353;23;20160;-85
2022/08/23 10:41:21;;;;;;;4.40;2.07;;;53.10;1.00;;;;;;6186319;23;20161;-84
2022/08/23 10:44:12;;;;;;;4.00;1.67;;;52.70;1.00;;;;;;6212257;23;20155;-84
2022/08/23 10:46:49;;;;;;;4.32;2.10;;;52.60;1.00;;;;;;6184451;23;20203;-84
2022/08/23 10:49:15;;;;;;;3.10;2.10;;;52.70;1.00;;;;;;6185580;23;20172;-85
2022/08/23 10:51:45;;;;;;;5.20;2.17;;;52.70;1.00;;;;;;6212368;23;20155;-84
2022/08/23 10:54:22;;;;;;;5.82;2.00;;;52.70;1.00;;;;;;6186356;23;20153;-84
2022/08/23 10:56:50;;;;;;;4.38;2.00;;;52.70;1.00;;;;;;6211285;23;20494;-84
2022/08/23 10:59:19;;;;;;;5.00;1.98;;;52.70;1.00;;;;;;6212651;23;20165;-85
2022/08/23 11:01:48;;;;;;;6.35;2.15;;;52.80;1.00;;;;;;6185808;23;20157;-85
2022/08/23 11:04:30;;;;;;;6.82;1.95;;;52.70;1.00;;;;;;6186519;23;20153;-85
2022/08/23 11:06:59;;;;;;;3.78;1.95;;;52.80;1.00;;;;;;6211040;23;20161;-84
2022/08/23 11:09:24;;;;;;;5.10;1.92;;;52.80;1.00;;;;;;6184545;23;20176;-84
2022/08/23 11:12:11;;;;;;;4.25;1.67;;;52.90;1.00;;;;;;6211276;23;20151;-85
2022/08/23 11:14:39;;;;;;;4.07;1.50;;;52.80;1.00;;;;;;6212734;23;20172;-84
2022/08/23 11:17:08;;;;;;;3.42;2.05;;;52.60;1.00;;;;;;6211019;23;20177;-84
2022/08/23 11:20:02;;;;;;;4.25;2.45;;;52.60;1.00;;;;;;6186470;23;20184;-84
2022/08/23 11:22:31;;;;;;;4.57;2.05;;;52.70;1.00;;;;;;6211807;23;20137;-85
2022/08/23 11:25:29;;;;;;;6.78;1.80;;;52.50;1.00;;;;;;6184990;23;20157;-86
2022/08/23 11:28:22;;;;;;;4.93;2.30;;;52.50;1.00;;;;;;6194233;23;20612;-84
2022/08/23 11:30:56;;;;;;;3.87;1.60;;;52.30;1.00;;;;;;6187304;23;20211;-84
2022/08/23 11:33:23;;;;;;;4.63;2.20;;;52.00;1.00;;;;;;6213228;23;20180;-85
2022/08/23 11:35:51;;;;;;;6.37;2.07;;;51.70;1.00;;;;;;6213585;23;20237;-85
2022/08/23 11:38:42;;;;;;;4.13;1.63;;;51.50;1.00;;;;;;6186598;23;20187;-85
2022/08/23 11:41:24;;;;;;;4.90;2.33;;;51.50;1.00;;;;;;6186356;23;20157;-85
2022/08/23 11:43:56;;;;;;;3.70;1.93;;;51.50;1.00;;;;;;6213680;23;20176;-85
2022/08/23 11:46:24;;;;;;;5.13;2.00;;;51.40;1.00;;;;;;6186437;23;20770;-83
2022/08/23 11:49:10;;;;;;;4.97;2.10;;;50.10;1.00;;;;;;6213358;23;20395;-84
2022/08/23 11:52:06;;;;;;;3.90;1.80;;;50.20;1.00;;;;;;6210055;23;20380;-84
2022/08/23 11:54:50;;;;;;;5.23;2.03;;;50.60;1.00;;;;;;6214294;23;20363;-84
2022/08/23 11:57:54;;;;;;;3.33;1.73;;;50.90;1.00;;;;;;6187073;23;20180;-84
2022/08/23 12:00:32;;;;;;;4.97;2.10;;;50.90;1.00;;;;;;6214964;23;20388;-84
2022/08/23 12:03:04;;;;;;;4.30;1.63;;;50.50;1.00;;;;;;6214266;23;20356;-84
2022/08/23 12:05:32;;;;;;;6.10;1.83;;;50.50;1.00;;;;;;6188095;23;20380;-85
2022/08/23 12:08:01;;;;;;;6.33;2.07;;;50.50;1.00;;;;;;6186826;23;20165;-84
2022/08/23 12:10:45;;;;;;;3.57;1.60;;;50.40;1.00;;;;;;6214916;23;20180;-84
2022/08/23 12:13:20;;;;;;;4.60;1.80;;;50.30;1.00;;;;;;6188635;23;20866;-84
2022/08/23 12:16:10;;;;;;;3.13;1.70;;;49.20;1.00;;;;;;6187434;23;20437;-84
2022/08/23 12:18:59;;;;;;;5.73;1.60;;;48.10;1.00;;;;;;6213698;23;20388;-83
2022/08/23 12:21:29;;;;;;;3.73;1.57;;;46.90;1.00;;;;;;6214481;23;20364;-83
2022/08/23 12:24:19;;;;;;;3.80;1.50;;;46.50;1.00;;;;;;6213856;23;20352;-84
2022/08/23 12:27:00;;;;;;;6.40;2.07;;;47.10;1.00;;;;;;6179216;23;21011;-84
2022/08/23 12:29:58;;;;;;;3.87;1.70;;;46.80;1.00;;;;;;6214968;23;20397;-83
2022/08/23 12:32:42;;;;;;;2.70;1.47;;;46.30;1.00;;;;;;6183655;23;20373;-84
2022/08/23 12:35:45;;;;;;;6.30;2.00;;;46.00;1.00;;;;;;6192645;23;20438;-84
2022/08/23 12:38:16;;;;;;;3.80;1.53;;;45.10;1.00;;;;;;6192490;23;20425;-83
2022/08/23 12:40:45;;;;;;;4.57;1.90;;;44.40;1.00;;;;;;6192681;23;20486;-83
2022/08/23 12:43:28;;;;;;;6.50;1.60;;;44.10;1.00;;;;;;6191993;23;20393;-83
2022/08/23 12:46:00;;;;;;;5.77;1.70;;;44.60;1.00;;;;;;6197049;23;20377;-83
2022/08/23 12:48:29;;;;;;;3.83;1.63;;;44.30;1.00;;;;;;6191935;23;20385;-83
2022/08/23 12:51:01;;;;;;;2.87;1.67;;;43.70;1.00;;;;;;6191836;23;20388;-83
2022/08/23 12:53:31;;;;;;;3.23;1.33;;;43.70;1.00;;;;;;6192178;23;20403;-85
2022/08/23 12:56:22;;;;;;;5.80;1.50;;;44.40;1.00;;;;;;6218383;23;20369;-83
2022/08/23 12:58:52;;;;;;;3.70;1.33;;;45.10;1.00;;;;;;6218214;23;20416;-84
2022/08/23 13:01:19;;;;;;;5.30;1.50;;;45.60;1.00;;;;;;6192966;23;20403;-83
2022/08/23 13:03:51;;;;;;;4.93;1.40;;;45.20;1.00;;;;;;6193383;23;20720;-83
2022/08/23 13:06:56;;;;;;;2.30;1.50;;;44.30;1.00;;;;;;6191557;23;20715;-85
2022/08/23 13:09:33;;;;;;;3.20;1.63;;;43.30;1.00;;;;;;6102420;23;20400;-84
2022/08/23 13:12:01;;;;;;;5.80;1.90;;;42.70;1.00;;;;;;6131574;23;20834;-85
2022/08/23 13:14:41;;;;;;;4.37;1.93;;;42.40;1.00;;;;;;6154509;23;20381;-87
2022/08/23 13:17:24;;;;;;;5.40;1.70;;;42.10;1.00;;;;;;6218797;23;20980;-83
2022/08/23 13:20:00;;;;;;;2.60;1.30;;;41.60;1.00;;;;;;6219921;23;20464;-83
2022/08/23 13:22:26;;;;;;;3.13;1.87;;;41.40;1.00;;;;;;6193952;23;20380;-83
2022/08/23 13:25:08;;;;;;;6.90;1.67;;;40.80;1.00;;;;;;6195080;23;20484;-83
2022/08/23 13:27:35;;;;;;;6.37;1.60;;;40.20;1.00;;;;;;6223807;23;20432;-83
2022/08/23 13:30:22;;;;;;;5.33;1.47;;;39.70;1.00;;;;;;6223461;23;20469;-83
2022/08/23 13:33:02;;;;;;;3.30;1.70;;;39.10;1.00;;;;;;6196511;23;20385;-83
2022/08/23 13:35:31;;;;;;;4.80;1.43;;;38.80;1.00;;;;;;6197565;23;20390;-85